sensor_id;sensor_type;location;lat;lon;timestamp;pressure;altitude;pressure_sealevel;temperature;humidity
35023;BME280;21214;44.912;8.204;2023-04-12T00:01:48;99177.53;;;11.79;100.00
35023;BME280;21214;44.912;8.204;2023-04-12T00:04:14;99177.16;;;11.74;100.00
35023;BME280;21214;44.912;8.204;2023-04-12T00:06:40;99170.22;;;11.73;100.00
35023;BME280;21214;44.912;8.204;2023-04-12T00:09:06;99169.94;;;11.76;100.00
35023;BME280;21214;44.912;8.204;2023-04-12T00:11:33;99165.88;;;11.72;100.00
35023;BME280;21214;44.912;8.204;2023-04-12T00:13:59;99157.00;;;11.73;100.00
35023;BME280;21214;44.912;8.204;2023-04-12T00:16:25;99157.31;;;11.70;100.00
35023;BME280;21214;44.912;8.204;2023-04-12T00:18:50;99158.78;;;11.65;100.00
35023;BME280;21214;44.912;8.204;2023-04-12T00:21:15;99165.81;;;11.56;100.00
35023;BME280;21214;44.912;8.204;2023-04-12T00:23:43;99169.78;;;11.52;100.00
35023;BME280;21214;44.912;8.204;2023-04-12T00:26:10;99169.44;;;11.47;100.00
35023;BME280;21214;44.912;8.204;2023-04-12T00:28:36;99165.13;;;11.46;100.00
35023;BME280;21214;44.912;8.204;2023-04-12T00:31:01;99165.25;;;11.36;100.00
35023;BME280;21214;44.912;8.204;2023-04-12T00:33:26;99163.69;;;11.26;100.00
35023;BME280;21214;44.912;8.204;2023-04-12T00:35:52;99154.06;;;11.17;100.00
35023;BME280;21214;44.912;8.204;2023-04-12T00:38:17;99150.75;;;11.15;100.00
35023;BME280;21214;44.912;8.204;2023-04-12T00:40:43;99144.28;;;11.09;100.00
35023;BME280;21214;44.912;8.204;2023-04-12T00:43:08;99153.03;;;11.09;100.00
35023;BME280;21214;44.912;8.204;2023-04-12T00:45:40;99150.03;;;11.04;100.00
35023;BME280;21214;44.912;8.204;2023-04-12T00:48:08;99136.78;;;10.96;100.00
35023;BME280;21214;44.912;8.204;2023-04-12T00:50:34;99136.78;;;10.96;100.00
35023;BME280;21214;44.912;8.204;2023-04-12T00:52:59;99143.06;;;10.95;100.00
35023;BME280;21214;44.912;8.204;2023-04-12T00:55:26;99146.34;;;10.97;100.00
35023;BME280;21214;44.912;8.204;2023-04-12T00:57:51;99157.28;;;11.02;100.00
35023;BME280;21214;44.912;8.204;2023-04-12T01:00:17;99153.66;;;11.03;100.00
35023;BME280;21214;44.912;8.204;2023-04-12T01:02:43;99145.59;;;11.05;100.00
35023;BME280;21214;44.912;8.204;2023-04-12T01:05:18;99154.28;;;10.97;100.00
35023;BME280;21214;44.912;8.204;2023-04-12T01:07:51;99159.53;;;10.89;100.00
35023;BME280;21214;44.912;8.204;2023-04-12T01:12:55;99147.50;;;10.95;100.00
35023;BME280;21214;44.912;8.204;2023-04-12T01:15:25;99139.66;;;10.85;100.00
35023;BME280;21214;44.912;8.204;2023-04-12T01:17:57;99136.16;;;10.77;100.00
35023;BME280;21214;44.912;8.204;2023-04-12T01:20:25;99128.03;;;10.70;100.00
35023;BME280;21214;44.912;8.204;2023-04-12T01:28:14;99122.22;;;10.66;100.00
35023;BME280;21214;44.912;8.204;2023-04-12T01:30:40;99129.94;;;10.60;100.00
35023;BME280;21214;44.912;8.204;2023-04-12T01:33:06;99128.81;;;10.45;100.00
35023;BME280;21214;44.912;8.204;2023-04-12T01:35:36;99126.78;;;10.39;100.00
35023;BME280;21214;44.912;8.204;2023-04-12T01:38:02;99125.44;;;10.35;100.00
35023;BME280;21214;44.912;8.204;2023-04-12T01:40:28;99138.91;;;10.32;100.00
35023;BME280;21214;44.912;8.204;2023-04-12T01:45:49;99129.38;;;10.31;100.00
35023;BME280;21214;44.912;8.204;2023-04-12T01:48:14;99131.00;;;10.32;100.00
35023;BME280;21214;44.912;8.204;2023-04-12T01:53:19;99121.66;;;10.19;100.00
35023;BME280;21214;44.912;8.204;2023-04-12T01:55:45;99114.75;;;10.18;100.00
35023;BME280;21214;44.912;8.204;2023-04-12T01:58:11;99114.44;;;10.21;100.00
35023;BME280;21214;44.912;8.204;2023-04-12T02:00:40;99099.66;;;10.29;100.00
35023;BME280;21214;44.912;8.204;2023-04-12T02:03:07;99112.38;;;10.33;100.00
35023;BME280;21214;44.912;8.204;2023-04-12T02:05:33;99105.69;;;10.39;100.00
35023;BME280;21214;44.912;8.204;2023-04-12T02:07:58;99105.06;;;10.45;100.00
35023;BME280;21214;44.912;8.204;2023-04-12T02:10:26;99101.47;;;10.46;100.00
35023;BME280;21214;44.912;8.204;2023-04-12T02:12:52;99099.50;;;10.48;100.00
35023;BME280;21214;44.912;8.204;2023-04-12T02:15:18;99095.06;;;10.48;100.00
35023;BME280;21214;44.912;8.204;2023-04-12T02:17:45;99102.50;;;10.53;100.00
35023;BME280;21214;44.912;8.204;2023-04-12T02:20:11;99106.41;;;10.49;100.00
35023;BME280;21214;44.912;8.204;2023-04-12T02:22:36;99105.06;;;10.45;100.00
35023;BME280;21214;44.912;8.204;2023-04-12T02:25:02;99108.41;;;10.47;100.00
35023;BME280;21214;44.912;8.204;2023-04-12T02:27:30;99098.81;;;10.46;100.00
35023;BME280;21214;44.912;8.204;2023-04-12T02:29:56;99096.78;;;10.40;100.00
35023;BME280;21214;44.912;8.204;2023-04-12T02:32:23;99094.84;;;10.42;100.00
35023;BME280;21214;44.912;8.204;2023-04-12T02:34:49;99101.47;;;10.46;100.00
35023;BME280;21214;44.912;8.204;2023-04-12T02:37:17;99096.47;;;10.43;100.00
35023;BME280;21214;44.912;8.204;2023-04-12T02:39:46;99089.03;;;10.38;100.00
35023;BME280;21214;44.912;8.204;2023-04-12T02:42:12;99093.78;;;10.35;100.00
35023;BME280;21214;44.912;8.204;2023-04-12T02:44:38;99101.97;;;10.32;100.00
35023;BME280;21214;44.912;8.204;2023-04-12T02:47:09;99106.28;;;10.33;100.00
35023;BME280;21214;44.912;8.204;2023-04-12T02:49:35;99101.34;;;10.30;100.00
35023;BME280;21214;44.912;8.204;2023-04-12T02:52:00;99101.69;;;10.35;100.00
35023;BME280;21214;44.912;8.204;2023-04-12T02:54:34;99110.22;;;10.29;100.00
35023;BME280;21214;44.912;8.204;2023-04-12T02:57:00;99108.31;;;10.21;100.00
35023;BME280;21214;44.912;8.204;2023-04-12T02:59:39;99103.38;;;10.18;100.00
35023;BME280;21214;44.912;8.204;2023-04-12T03:02:15;99101.13;;;10.13;100.00
35023;BME280;21214;44.912;8.204;2023-04-12T03:04:41;99099.19;;;10.15;100.00
35023;BME280;21214;44.912;8.204;2023-04-12T03:07:12;99091.50;;;10.04;100.00
35023;BME280;21214;44.912;8.204;2023-04-12T03:09:45;99094.06;;;10.14;100.00
35023;BME280;21214;44.912;8.204;2023-04-12T03:12:13;99091.59;;;10.12;100.00
35023;BME280;21214;44.912;8.204;2023-04-12T03:14:46;99101.13;;;10.13;100.00
35023;BME280;21214;44.912;8.204;2023-04-12T03:17:12;99107.63;;;10.01;100.00
35023;BME280;21214;44.912;8.204;2023-04-12T03:19:38;99107.41;;;9.95;100.00
35023;BME280;21214;44.912;8.204;2023-04-12T03:22:04;99119.38;;;9.89;100.00
35023;BME280;21214;44.912;8.204;2023-04-12T03:24:33;99124.22;;;9.84;100.00
35023;BME280;21214;44.912;8.204;2023-04-12T03:27:02;99117.22;;;9.75;100.00
35023;BME280;21214;44.912;8.204;2023-04-12T03:29:31;99107.00;;;9.72;100.00
35023;BME280;21214;44.912;8.204;2023-04-12T03:31:56;99112.78;;;9.75;100.00
35023;BME280;21214;44.912;8.204;2023-04-12T03:34:23;99102.78;;;9.79;100.00
35023;BME280;21214;44.912;8.204;2023-04-12T03:36:52;99098.88;;;9.83;100.00
35023;BME280;21214;44.912;8.204;2023-04-12T03:39:26;99103.56;;;9.89;100.00
35023;BME280;21214;44.912;8.204;2023-04-12T03:41:52;99106.56;;;9.94;100.00
35023;BME280;21214;44.912;8.204;2023-04-12T03:44:21;99100.69;;;10.00;100.00
35023;BME280;21214;44.912;8.204;2023-04-12T03:46:47;99097.09;;;10.01;100.00
35023;BME280;21214;44.912;8.204;2023-04-12T03:49:14;99095.94;;;9.86;100.00
35023;BME280;21214;44.912;8.204;2023-04-12T03:51:41;99093.00;;;9.89;100.00
35023;BME280;21214;44.912;8.204;2023-04-12T03:54:08;99094.97;;;9.87;100.00
35023;BME280;21214;44.912;8.204;2023-04-12T03:56:47;99094.13;;;9.86;100.00
35023;BME280;21214;44.912;8.204;2023-04-12T03:59:21;99102.72;;;9.89;100.00
35023;BME280;21214;44.912;8.204;2023-04-12T04:01:48;99116.31;;;9.84;100.00
35023;BME280;21214;44.912;8.204;2023-04-12T04:04:14;99114.97;;;9.80;100.00
35023;BME280;21214;44.912;8.204;2023-04-12T04:06:39;99106.38;;;9.78;100.00
35023;BME280;21214;44.912;8.204;2023-04-12T04:09:05;99115.81;;;9.80;100.00
35023;BME280;21214;44.912;8.204;2023-04-12T04:11:33;99109.69;;;9.80;100.00
35023;BME280;21214;44.912;8.204;2023-04-12T04:14:04;99103.84;;;9.86;100.00
35023;BME280;21214;44.912;8.204;2023-04-12T04:16:30;99099.91;;;9.90;100.00
35023;BME280;21214;44.912;8.204;2023-04-12T04:18:56;99096.63;;;9.88;100.00
35023;BME280;21214;44.912;8.204;2023-04-12T04:21:22;99098.28;;;9.89;100.00
35023;BME280;21214;44.912;8.204;2023-04-12T04:23:53;99094.97;;;9.87;100.00
35023;BME280;21214;44.912;8.204;2023-04-12T04:26:19;99101.41;;;9.75;100.00
35023;BME280;21214;44.912;8.204;2023-04-12T04:28:54;99105.56;;;9.77;100.00
35023;BME280;21214;44.912;8.204;2023-04-12T04:31:24;99102.25;;;9.75;100.00
35023;BME280;21214;44.912;8.204;2023-04-12T04:33:51;99100.91;;;9.71;100.00
35023;BME280;21214;44.912;8.204;2023-04-12T04:36:21;99088.94;;;9.77;100.00
35023;BME280;21214;44.912;8.204;2023-04-12T04:38:51;99086.69;;;9.82;100.00
35023;BME280;21214;44.912;8.204;2023-04-12T04:41:30;99095.78;;;9.88;100.00
35023;BME280;21214;44.912;8.204;2023-04-12T04:43:59;99101.34;;;9.84;100.00
35023;BME280;21214;44.912;8.204;2023-04-12T04:46:27;99098.56;;;9.86;100.00
35023;BME280;21214;44.912;8.204;2023-04-12T04:48:54;99093.41;;;9.94;100.00
35023;BME280;21214;44.912;8.204;2023-04-12T04:51:20;99087.16;;;9.95;100.00
35023;BME280;21214;44.912;8.204;2023-04-12T04:53:45;99085.16;;;9.97;100.00
35023;BME280;21214;44.912;8.204;2023-04-12T04:56:13;99101.81;;;9.98;100.00
35023;BME280;21214;44.912;8.204;2023-04-12T04:58:39;99108.00;;;9.89;100.00
35023;BME280;21214;44.912;8.204;2023-04-12T05:01:05;99114.09;;;9.89;100.00
35023;BME280;21214;44.912;8.204;2023-04-12T05:03:31;99108.81;;;9.89;100.00
35023;BME280;21214;44.912;8.204;2023-04-12T05:05:59;99115.72;;;9.90;100.00
35023;BME280;21214;44.912;8.204;2023-04-12T05:08:25;99112.81;;;9.93;100.00
35023;BME280;21214;44.912;8.204;2023-04-12T05:10:51;99116.13;;;9.95;100.00
35023;BME280;21214;44.912;8.204;2023-04-12T05:13:17;99117.09;;;9.94;100.00
35023;BME280;21214;44.912;8.204;2023-04-12T05:15:43;99116.78;;;9.97;100.00
35023;BME280;21214;44.912;8.204;2023-04-12T05:18:08;99115.44;;;9.93;100.00
35023;BME280;21214;44.912;8.204;2023-04-12T05:20:36;99130.28;;;9.94;100.00
35023;BME280;21214;44.912;8.204;2023-04-12T05:23:02;99142.03;;;10.00;100.00
35023;BME280;21214;44.912;8.204;2023-04-12T05:25:28;99127.72;;;10.02;100.00
35023;BME280;21214;44.912;8.204;2023-04-12T05:28:01;99131.19;;;10.03;100.00
35023;BME280;21214;44.912;8.204;2023-04-12T05:30:26;99129.38;;;10.03;100.00
35023;BME280;21214;44.912;8.204;2023-04-12T05:32:52;99127.56;;;10.04;100.00
35023;BME280;21214;44.912;8.204;2023-04-12T05:35:18;99132.41;;;10.08;100.00
35023;BME280;21214;44.912;8.204;2023-04-12T05:37:44;99138.63;;;10.07;100.00
35023;BME280;21214;44.912;8.204;2023-04-12T05:40:11;99131.41;;;10.09;100.00
35023;BME280;21214;44.912;8.204;2023-04-12T05:42:37;99135.16;;;10.16;100.00
35023;BME280;21214;44.912;8.204;2023-04-12T05:45:03;99140.44;;;10.16;100.00
35023;BME280;21214;44.912;8.204;2023-04-12T05:47:33;99129.97;;;10.24;100.00
35023;BME280;21214;44.912;8.204;2023-04-12T05:50:00;99131.31;;;10.29;100.00
35023;BME280;21214;44.912;8.204;2023-04-12T05:52:25;99131.81;;;10.32;100.00
35023;BME280;21214;44.912;8.204;2023-04-12T05:54:51;99123.84;;;10.42;100.00
35023;BME280;21214;44.912;8.204;2023-04-12T05:57:17;99134.78;;;10.47;100.00
35023;BME280;21214;44.912;8.204;2023-04-12T05:59:42;99137.78;;;10.52;100.00
35023;BME280;21214;44.912;8.204;2023-04-12T06:02:08;99148.34;;;10.52;100.00
35023;BME280;21214;44.912;8.204;2023-04-12T06:04:34;99151.66;;;10.54;100.00
35023;BME280;21214;44.912;8.204;2023-04-12T06:06:59;99151.66;;;10.54;100.00
35023;BME280;21214;44.912;8.204;2023-04-12T06:09:25;99144.53;;;10.54;100.00
35023;BME280;21214;44.912;8.204;2023-04-12T06:11:51;99148.34;;;10.52;100.00
35023;BME280;21214;44.912;8.204;2023-04-12T06:14:17;99146.97;;;10.48;100.00
35023;BME280;21214;44.912;8.204;2023-04-12T06:16:44;99150.88;;;10.44;100.00
35023;BME280;21214;44.912;8.204;2023-04-12T06:19:09;99145.31;;;10.47;100.00
35023;BME280;21214;44.912;8.204;2023-04-12T06:21:35;99132.50;;;10.52;100.00
35023;BME280;21214;44.912;8.204;2023-04-12T06:24:00;99149.38;;;10.59;100.00
35023;BME280;21214;44.912;8.204;2023-04-12T06:26:26;99154.06;;;10.65;100.00
35023;BME280;21214;44.912;8.204;2023-04-12T06:28:52;99152.31;;;10.56;100.00
35023;BME280;21214;44.912;8.204;2023-04-12T06:31:18;99153.00;;;10.58;100.00
35023;BME280;21214;44.912;8.204;2023-04-12T06:33:43;99152.63;;;10.53;100.00
35023;BME280;21214;44.912;8.204;2023-04-12T06:36:09;99148.34;;;10.52;100.00
35023;BME280;21214;44.912;8.204;2023-04-12T06:38:35;99146.38;;;10.54;100.00
35023;BME280;21214;44.912;8.204;2023-04-12T06:41:01;99136.84;;;10.61;100.00
35023;BME280;21214;44.912;8.204;2023-04-12T06:43:26;99140.91;;;10.73;100.00
35023;BME280;21214;44.912;8.204;2023-04-12T06:45:52;99131.38;;;10.80;100.00
35023;BME280;21214;44.912;8.204;2023-04-12T06:48:17;99126.84;;;10.90;100.00
35023;BME280;21214;44.912;8.204;2023-04-12T06:50:45;99124.25;;;10.98;100.00
35023;BME280;21214;44.912;8.204;2023-04-12T06:53:11;99123.97;;;11.01;100.00
35023;BME280;21214;44.912;8.204;2023-04-12T06:55:37;99127.25;;;11.03;100.00
35023;BME280;21214;44.912;8.204;2023-04-12T06:58:03;99136.78;;;10.96;100.00
35023;BME280;21214;44.912;8.204;2023-04-12T07:00:28;99136.25;;;10.93;100.00
35023;BME280;21214;44.912;8.204;2023-04-12T07:02:53;99142.88;;;10.97;100.00
35023;BME280;21214;44.912;8.204;2023-04-12T07:05:19;99136.78;;;10.96;100.00
35023;BME280;21214;44.912;8.204;2023-04-12T07:07:44;99137.09;;;10.93;100.00
35023;BME280;21214;44.912;8.204;2023-04-12T07:10:10;99134.81;;;10.98;100.00
35023;BME280;21214;44.912;8.204;2023-04-12T07:12:35;99132.53;;;11.03;100.00
35023;BME280;21214;44.912;8.204;2023-04-12T07:15:01;99125.78;;;11.09;100.00
35023;BME280;21214;44.912;8.204;2023-04-12T07:17:26;99133.88;;;11.07;100.00
35023;BME280;21214;44.912;8.204;2023-04-12T07:19:55;99121.69;;;11.06;100.00
35023;BME280;21214;44.912;8.204;2023-04-12T07:22:20;99117.56;;;11.12;100.00
35023;BME280;21214;44.912;8.204;2023-04-12T07:24:46;99118.44;;;11.21;100.00
35023;BME280;21214;44.912;8.204;2023-04-12T07:27:12;99115.50;;;11.32;100.00
35023;BME280;21214;44.912;8.204;2023-04-12T07:29:37;99123.16;;;11.43;100.00
35023;BME280;21214;44.912;8.204;2023-04-12T07:32:03;99112.97;;;11.56;100.00
35023;BME280;21214;44.912;8.204;2023-04-12T07:34:31;99116.84;;;11.70;100.00
35023;BME280;21214;44.912;8.204;2023-04-12T07:36:56;99108.16;;;11.85;100.00
35023;BME280;21214;44.912;8.204;2023-04-12T07:39:22;99108.50;;;11.99;100.00
35023;BME280;21214;44.912;8.204;2023-04-12T07:41:48;99108.19;;;12.10;100.00
35023;BME280;21214;44.912;8.204;2023-04-12T07:44:13;99113.00;;;12.14;100.00
35023;BME280;21214;44.912;8.204;2023-04-12T07:46:39;99114.81;;;12.22;100.00
35023;BME280;21214;44.912;8.204;2023-04-12T07:49:06;99108.56;;;12.31;100.00
35023;BME280;21214;44.912;8.204;2023-04-12T07:51:31;99117.50;;;12.46;100.00
35023;BME280;21214;44.912;8.204;2023-04-12T07:53:57;99115.50;;;12.64;100.00
35023;BME280;21214;44.912;8.204;2023-04-12T07:56:22;99122.44;;;12.82;100.00
35023;BME280;21214;44.912;8.204;2023-04-12T07:58:47;99117.63;;;12.85;100.00
35023;BME280;21214;44.912;8.204;2023-04-12T08:01:13;99115.44;;;12.97;100.00
35023;BME280;21214;44.912;8.204;2023-04-12T08:03:39;99128.69;;;13.05;100.00
35023;BME280;21214;44.912;8.204;2023-04-12T08:06:04;99122.91;;;13.18;100.00
35023;BME280;21214;44.912;8.204;2023-04-12T08:08:29;99121.88;;;13.27;100.00
35023;BME280;21214;44.912;8.204;2023-04-12T08:10:55;99125.66;;;13.32;100.00
35023;BME280;21214;44.912;8.204;2023-04-12T08:13:20;99114.38;;;13.38;100.00
35023;BME280;21214;44.912;8.204;2023-04-12T08:15:46;99127.25;;;13.49;100.00
35023;BME280;21214;44.912;8.204;2023-04-12T08:18:12;99131.53;;;13.59;100.00
35023;BME280;21214;44.912;8.204;2023-04-12T08:20:37;99129.72;;;13.51;100.00
35023;BME280;21214;44.912;8.204;2023-04-12T08:23:05;99137.41;;;13.38;100.00
35023;BME280;21214;44.912;8.204;2023-04-12T08:25:30;99139.56;;;13.42;100.00
35023;BME280;21214;44.912;8.204;2023-04-12T08:27:55;99143.84;;;13.43;100.00
35023;BME280;21214;44.912;8.204;2023-04-12T08:30:21;99144.50;;;13.37;100.00
35023;BME280;21214;44.912;8.204;2023-04-12T08:32:51;99148.44;;;13.49;100.00
35023;BME280;21214;44.912;8.204;2023-04-12T08:35:16;99140.56;;;13.41;100.00
35023;BME280;21214;44.912;8.204;2023-04-12T08:37:41;99140.56;;;13.41;100.00
35023;BME280;21214;44.912;8.204;2023-04-12T08:40:07;99135.56;;;13.46;100.00
35023;BME280;21214;44.912;8.204;2023-04-12T08:42:33;99134.88;;;13.44;100.00
35023;BME280;21214;44.912;8.204;2023-04-12T08:45:02;99120.44;;;13.55;100.00
35023;BME280;21214;44.912;8.204;2023-04-12T08:47:28;99120.53;;;13.70;100.00
35023;BME280;21214;44.912;8.204;2023-04-12T08:49:54;99119.47;;;13.87;100.00
35023;BME280;21214;44.912;8.204;2023-04-12T08:52:19;99126.06;;;13.91;100.00
35023;BME280;21214;44.912;8.204;2023-04-12T08:54:45;99122.84;;;14.04;100.00
35023;BME280;21214;44.912;8.204;2023-04-12T08:57:11;99123.88;;;14.25;100.00
35023;BME280;21214;44.912;8.204;2023-04-12T08:59:37;99121.84;;;14.27;100.00
35023;BME280;21214;44.912;8.204;2023-04-12T09:02:03;99109.59;;;14.26;100.00
35023;BME280;21214;44.912;8.204;2023-04-12T09:04:29;99105.22;;;14.33;100.00
35023;BME280;21214;44.912;8.204;2023-04-12T09:06:54;99111.97;;;14.44;100.00
35023;BME280;21214;44.912;8.204;2023-04-12T09:12:07;99099.03;;;14.64;100.00
35023;BME280;21214;44.912;8.204;2023-04-12T09:14:32;99098.16;;;14.71;100.00
35023;BME280;21214;44.912;8.204;2023-04-12T09:16:57;99092.72;;;14.65;100.00
35023;BME280;21214;44.912;8.204;2023-04-12T09:19:29;99090.06;;;14.65;100.00
35023;BME280;21214;44.912;8.204;2023-04-12T09:21:55;99093.34;;;14.67;100.00
35023;BME280;21214;44.912;8.204;2023-04-12T09:24:21;99091.63;;;14.74;100.00
35023;BME280;21214;44.912;8.204;2023-04-12T09:29:25;99085.81;;;14.93;100.00
35023;BME280;21214;44.912;8.204;2023-04-12T09:31:54;99081.16;;;14.95;100.00
35023;BME280;21214;44.912;8.204;2023-04-12T09:34:20;99088.00;;;15.04;100.00
35023;BME280;21214;44.912;8.204;2023-04-12T09:36:45;99093.63;;;15.24;100.00
35023;BME280;21214;44.912;8.204;2023-04-12T09:39:10;99092.16;;;15.36;100.00
35023;BME280;21214;44.912;8.204;2023-04-12T09:41:36;99092.84;;;15.45;100.00
35023;BME280;21214;44.912;8.204;2023-04-12T09:44:01;99085.81;;;15.52;100.00
35023;BME280;21214;44.912;8.204;2023-04-12T09:46:27;99079.13;;;15.56;100.00
35023;BME280;21214;44.912;8.204;2023-04-12T09:48:53;99075.34;;;15.65;100.00
35023;BME280;21214;44.912;8.204;2023-04-12T09:53:53;99086.84;;;15.87;100.00
35023;BME280;21214;44.912;8.204;2023-04-12T09:56:18;99086.75;;;15.95;100.00
35023;BME280;21214;44.912;8.204;2023-04-12T09:58:47;99089.19;;;15.96;100.00
35023;BME280;21214;44.912;8.204;2023-04-12T10:01:14;99082.56;;;16.07;100.00
35023;BME280;21214;44.912;8.204;2023-04-12T10:03:40;99090.63;;;16.14;100.00
35023;BME280;21214;44.912;8.204;2023-04-12T10:06:06;99080.84;;;16.21;100.00
35023;BME280;21214;44.912;8.204;2023-04-12T10:08:32;99072.94;;;16.27;100.00
35023;BME280;21214;44.912;8.204;2023-04-12T10:10:57;99068.31;;;16.36;100.00
35023;BME280;21214;44.912;8.204;2023-04-12T10:13:23;99068.44;;;16.49;100.00
35023;BME280;21214;44.912;8.204;2023-04-12T10:15:51;99053.72;;;16.53;100.00
35023;BME280;21214;44.912;8.204;2023-04-12T10:18:17;99041.31;;;16.60;100.00
35023;BME280;21214;44.912;8.204;2023-04-12T10:20:44;99041.91;;;16.62;100.00
35023;BME280;21214;44.912;8.204;2023-04-12T10:23:14;99035.03;;;16.74;100.00
35023;BME280;21214;44.912;8.204;2023-04-12T10:25:40;99029.28;;;16.71;100.00
35023;BME280;21214;44.912;8.204;2023-04-12T10:28:15;99027.69;;;16.76;100.00
35023;BME280;21214;44.912;8.204;2023-04-12T10:30:42;99030.56;;;16.82;100.00
35023;BME280;21214;44.912;8.204;2023-04-12T10:33:10;99019.28;;;16.79;100.00
35023;BME280;21214;44.912;8.204;2023-04-12T10:38:12;99029.16;;;16.58;100.00
35023;BME280;21214;44.912;8.204;2023-04-12T10:40:37;99014.75;;;16.52;100.00
35023;BME280;21214;44.912;8.204;2023-04-12T10:45:46;99005.50;;;16.69;100.00
35023;BME280;21214;44.912;8.204;2023-04-12T10:53:40;98993.41;;;16.73;100.00
35023;BME280;21214;44.912;8.204;2023-04-12T10:58:55;99018.50;;;16.86;100.00
35023;BME280;21214;44.912;8.204;2023-04-12T11:01:21;99019.09;;;16.81;100.00
35023;BME280;21214;44.912;8.204;2023-04-12T11:06:47;98987.25;;;16.45;100.00
35023;BME280;21214;44.912;8.204;2023-04-12T11:09:54;98992.94;;;16.35;100.00
35023;BME280;21214;44.912;8.204;2023-04-12T11:12:32;98995.41;;;16.37;100.00
35023;BME280;21214;44.912;8.204;2023-04-12T11:14:58;98988.44;;;16.36;100.00
35023;BME280;21214;44.912;8.204;2023-04-12T11:17:26;98987.69;;;16.21;100.00
35023;BME280;21214;44.912;8.204;2023-04-12T11:19:55;98976.31;;;16.06;100.00
35023;BME280;21214;44.912;8.204;2023-04-12T11:22:22;98973.88;;;16.11;100.00
35023;BME280;21214;44.912;8.204;2023-04-12T11:24:49;98975.06;;;16.08;100.00
35023;BME280;21214;44.912;8.204;2023-04-12T11:27:14;98967.19;;;15.93;100.00
35023;BME280;21214;44.912;8.204;2023-04-12T11:29:43;98968.69;;;16.03;100.00
35023;BME280;21214;44.912;8.204;2023-04-12T11:32:09;98970.59;;;16.09;100.00
35023;BME280;21214;44.912;8.204;2023-04-12T11:34:36;98976.19;;;15.92;100.00
35023;BME280;21214;44.912;8.204;2023-04-12T11:37:02;98973.66;;;15.84;100.00
35023;BME280;21214;44.912;8.204;2023-04-12T11:39:41;98969.97;;;15.85;100.00
35023;BME280;21214;44.912;8.204;2023-04-12T11:42:10;98969.09;;;15.78;100.00
35023;BME280;21214;44.912;8.204;2023-04-12T11:44:36;98965.03;;;15.82;100.00
35023;BME280;21214;44.912;8.204;2023-04-12T11:47:04;98967.81;;;15.74;100.00
35023;BME280;21214;44.912;8.204;2023-04-12T11:49:29;98962.50;;;15.74;100.00
35023;BME280;21214;44.912;8.204;2023-04-12T11:52:01;98967.81;;;15.74;100.00
35023;BME280;21214;44.912;8.204;2023-04-12T11:54:28;98964.22;;;15.82;100.00
35023;BME280;21214;44.912;8.204;2023-04-12T11:56:55;98959.78;;;15.89;100.00
35023;BME280;21214;44.912;8.204;2023-04-12T11:59:21;98957.78;;;15.97;100.00
35023;BME280;21214;44.912;8.204;2023-04-12T12:01:49;98950.56;;;16.13;100.00
35023;BME280;21214;44.912;8.204;2023-04-12T12:04:15;98951.44;;;16.20;100.00
35023;BME280;21214;44.912;8.204;2023-04-12T12:06:42;98950.28;;;16.29;100.00
35023;BME280;21214;44.912;8.204;2023-04-12T12:09:07;98945.06;;;16.42;100.00
35023;BME280;21214;44.912;8.204;2023-04-12T12:11:33;98962.09;;;16.48;100.00
35023;BME280;21214;44.912;8.204;2023-04-12T12:13:58;98953.03;;;16.42;100.00
35023;BME280;21214;44.912;8.204;2023-04-12T12:16:25;98947.94;;;16.47;100.00
35023;BME280;21214;44.912;8.204;2023-04-12T12:18:51;98939.72;;;16.42;100.00
35023;BME280;21214;44.912;8.204;2023-04-12T12:21:17;98936.78;;;16.30;100.00
35023;BME280;21214;44.912;8.204;2023-04-12T12:23:43;98947.75;;;16.21;100.00
35023;BME280;21214;44.912;8.204;2023-04-12T12:26:09;98948.28;;;16.10;100.00
35023;BME280;21214;44.912;8.204;2023-04-12T12:28:35;98935.75;;;16.04;100.00
35023;BME280;21214;44.912;8.204;2023-04-12T12:31:01;98945.56;;;16.03;100.00
35023;BME280;21214;44.912;8.204;2023-04-12T12:33:37;98929.81;;;16.02;100.00
35023;BME280;21214;44.912;8.204;2023-04-12T12:36:16;98944.41;;;16.12;100.00
35023;BME280;21214;44.912;8.204;2023-04-12T12:38:42;98945.00;;;16.08;100.00
35023;BME280;21214;44.912;8.204;2023-04-12T12:41:17;98926.75;;;16.05;100.00
35023;BME280;21214;44.912;8.204;2023-04-12T12:43:46;98922.69;;;16.09;100.00
35023;BME280;21214;44.912;8.204;2023-04-12T12:46:12;98907.47;;;16.03;100.00
35023;BME280;21214;44.912;8.204;2023-04-12T12:48:41;98912.03;;;16.09;100.00
35023;BME280;21214;44.912;8.204;2023-04-12T12:51:09;98919.53;;;16.26;100.00
35023;BME280;21214;44.912;8.204;2023-04-12T12:53:36;98916.31;;;16.31;100.00
35023;BME280;21214;44.912;8.204;2023-04-12T12:56:02;98906.66;;;16.30;100.00
35023;BME280;21214;44.912;8.204;2023-04-12T12:58:27;98908.94;;;16.33;100.00
35023;BME280;21214;44.912;8.204;2023-04-12T13:00:53;98901.09;;;16.25;100.00
35023;BME280;21214;44.912;8.204;2023-04-12T13:03:18;98901.09;;;16.25;100.00
35023;BME280;21214;44.912;8.204;2023-04-12T13:05:44;98911.72;;;16.18;100.00
35023;BME280;21214;44.912;8.204;2023-04-12T13:08:10;98908.59;;;16.15;100.00
35023;BME280;21214;44.912;8.204;2023-04-12T13:10:35;98897.47;;;16.05;100.00
35023;BME280;21214;44.912;8.204;2023-04-12T13:13:01;98891.13;;;16.06;100.00
35023;BME280;21214;44.912;8.204;2023-04-12T13:15:26;98885.41;;;16.02;100.00
35023;BME280;21214;44.912;8.204;2023-04-12T13:17:52;98888.56;;;15.91;100.00
35023;BME280;21214;44.912;8.204;2023-04-12T13:20:17;98890.56;;;15.82;100.00
35023;BME280;21214;44.912;8.204;2023-04-12T13:22:43;98878.66;;;15.78;100.00
35023;BME280;21214;44.912;8.204;2023-04-12T13:25:08;98863.88;;;15.76;100.00
35023;BME280;21214;44.912;8.204;2023-04-12T13:27:34;98870.81;;;15.70;100.00
35023;BME280;21214;44.912;8.204;2023-04-12T13:29:59;98866.69;;;15.68;100.00